sensor_id;sensor_type;location;lat;lon;timestamp;pressure;altitude;pressure_sealevel;temperature;humidity
51986;BME280;38002;53.296;6.600;2023-05-21T00:04:24;102352.72;;;13.97;73.93
51986;BME280;38002;53.296;6.600;2023-05-21T00:09:24;102352.72;;;13.97;73.62
51986;BME280;38002;53.296;6.600;2023-05-21T00:14:25;102331.84;;;13.96;73.37
51986;BME280;38002;53.296;6.600;2023-05-21T00:19:25;102342.78;;;13.96;73.72
51986;BME280;38002;53.296;6.600;2023-05-21T00:24:28;102342.78;;;13.96;74.21
51986;BME280;38002;53.296;6.600;2023-05-21T00:29:29;102331.13;;;13.94;73.94
51986;BME280;38002;53.296;6.600;2023-05-21T00:34:29;102337.63;;;13.93;74.37
51986;BME280;38002;53.296;6.600;2023-05-21T00:39:30;102336.75;;;13.92;74.28
51986;BME280;38002;53.296;6.600;2023-05-21T00:44:30;102324.53;;;13.87;74.58
51986;BME280;38002;53.296;6.600;2023-05-21T00:49:33;102318.06;;;13.88;74.26
51986;BME280;38002;53.296;6.600;2023-05-21T00:54:33;102312.59;;;13.88;74.68
51986;BME280;38002;53.296;6.600;2023-05-21T00:59:34;102305.97;;;13.90;74.42
51986;BME280;38002;53.296;6.600;2023-05-21T01:04:35;102301.34;;;13.91;74.49
51986;BME280;38002;53.296;6.600;2023-05-21T01:09:35;102303.94;;;13.92;74.50
51986;BME280;38002;53.296;6.600;2023-05-21T01:14:36;102290.41;;;13.91;74.64
51986;BME280;38002;53.296;6.600;2023-05-21T01:19:37;102296.88;;;13.90;74.83
51986;BME280;38002;53.296;6.600;2023-05-21T01:24:37;102301.34;;;13.91;74.96
51986;BME280;38002;53.296;6.600;2023-05-21T01:29:38;102295.19;;;13.89;75.34
51986;BME280;38002;53.296;6.600;2023-05-21T01:34:55;102293.28;;;13.89;76.11
51986;BME280;38002;53.296;6.600;2023-05-21T01:40:13;102293.59;;;13.86;76.50
51986;BME280;38002;53.296;6.600;2023-05-21T01:45:16;102293.75;;;13.85;75.50
51986;BME280;38002;53.296;6.600;2023-05-21T01:50:17;102289.13;;;13.85;76.17
51986;BME280;38002;53.296;6.600;2023-05-21T01:55:18;102291.03;;;13.85;75.85
51986;BME280;38002;53.296;6.600;2023-05-21T02:00:24;102277.34;;;13.85;76.25
51986;BME280;38002;53.296;6.600;2023-05-21T02:05:27;102273.91;;;13.83;76.71
51986;BME280;38002;53.296;6.600;2023-05-21T02:10:28;102283.72;;;13.76;76.58
51986;BME280;38002;53.296;6.600;2023-05-21T02:15:28;102280.38;;;13.72;76.24
51986;BME280;38002;53.296;6.600;2023-05-21T02:20:29;102273.34;;;13.70;76.07
51986;BME280;38002;53.296;6.600;2023-05-21T02:25:30;102281.88;;;13.67;76.62
51986;BME280;38002;53.296;6.600;2023-05-21T02:30:30;102280.69;;;13.59;76.47
51986;BME280;38002;53.296;6.600;2023-05-21T02:35:31;102280.16;;;13.56;76.56
51986;BME280;38002;53.296;6.600;2023-05-21T02:40:31;102275.13;;;13.51;76.43
51986;BME280;38002;53.296;6.600;2023-05-21T02:45:32;102270.38;;;13.44;76.33
51986;BME280;38002;53.296;6.600;2023-05-21T02:50:32;102264.06;;;13.34;77.06
51986;BME280;38002;53.296;6.600;2023-05-21T02:55:33;102264.81;;;13.26;77.08
51986;BME280;38002;53.296;6.600;2023-05-21T03:00:33;102270.69;;;13.22;77.02
51986;BME280;38002;53.296;6.600;2023-05-21T03:05:34;102263.09;;;13.15;77.61
51986;BME280;38002;53.296;6.600;2023-05-21T03:10:34;102262.66;;;13.10;77.74
51986;BME280;38002;53.296;6.600;2023-05-21T03:15:35;102260.63;;;13.03;77.37
51986;BME280;38002;53.296;6.600;2023-05-21T03:20:37;102258.91;;;13.02;77.88
51986;BME280;38002;53.296;6.600;2023-05-21T03:25:43;102257.16;;;13.01;78.29
51986;BME280;38002;53.296;6.600;2023-05-21T03:30:45;102249.84;;;13.01;77.97
51986;BME280;38002;53.296;6.600;2023-05-21T03:35:45;102240.78;;;13.01;77.93
51986;BME280;38002;53.296;6.600;2023-05-21T03:40:46;102255.44;;;13.00;78.37
51986;BME280;38002;53.296;6.600;2023-05-21T03:45:46;102252.69;;;13.00;78.53
51986;BME280;38002;53.296;6.600;2023-05-21T03:50:47;102256.44;;;12.99;78.61
51986;BME280;38002;53.296;6.600;2023-05-21T03:55:47;102254.44;;;13.01;78.33
51986;BME280;38002;53.296;6.600;2023-05-21T04:00:54;102253.44;;;13.02;78.66
51986;BME280;38002;53.296;6.600;2023-05-21T04:05:54;102257.59;;;13.06;78.39
51986;BME280;38002;53.296;6.600;2023-05-21T04:10:56;102253.00;;;13.06;78.98
51986;BME280;38002;53.296;6.600;2023-05-21T04:15:57;102253.13;;;13.05;78.97
51986;BME280;38002;53.296;6.600;2023-05-21T04:20:57;102252.84;;;13.08;78.69
51986;BME280;38002;53.296;6.600;2023-05-21T04:25:59;102262.66;;;13.10;79.09
51986;BME280;38002;53.296;6.600;2023-05-21T04:31:00;102258.06;;;13.11;78.83
51986;BME280;38002;53.296;6.600;2023-05-21T04:36:01;102254.31;;;13.12;79.17
51986;BME280;38002;53.296;6.600;2023-05-21T04:41:03;102262.50;;;13.12;79.35
51986;BME280;38002;53.296;6.600;2023-05-21T04:46:03;102258.06;;;13.11;78.89
51986;BME280;38002;53.296;6.600;2023-05-21T04:51:05;102266.66;;;13.16;79.85
51986;BME280;38002;53.296;6.600;2023-05-21T04:56:06;102261.81;;;13.20;79.31
51986;BME280;38002;53.296;6.600;2023-05-21T05:01:06;102261.19;;;13.26;79.90
51986;BME280;38002;53.296;6.600;2023-05-21T05:06:08;102260.78;;;13.30;79.95
51986;BME280;38002;53.296;6.600;2023-05-21T05:11:08;102259.47;;;13.34;79.45
51986;BME280;38002;53.296;6.600;2023-05-21T05:16:08;102251.69;;;13.39;79.55
51986;BME280;38002;53.296;6.600;2023-05-21T05:21:09;102241.75;;;13.48;79.58
51986;BME280;38002;53.296;6.600;2023-05-21T05:26:09;102242.06;;;13.54;79.61
51986;BME280;38002;53.296;6.600;2023-05-21T05:31:10;102237.28;;;13.56;79.62
51986;BME280;38002;53.296;6.600;2023-05-21T05:36:11;102240.13;;;13.64;79.03
51986;BME280;38002;53.296;6.600;2023-05-21T05:41:11;102246.13;;;13.78;79.38
51986;BME280;38002;53.296;6.600;2023-05-21T05:46:12;102242.50;;;13.87;79.15
51986;BME280;38002;53.296;6.600;2023-05-21T05:51:13;102240.75;;;13.95;79.20
51986;BME280;38002;53.296;6.600;2023-05-21T05:56:14;102231.09;;;14.01;79.52
51986;BME280;38002;53.296;6.600;2023-05-21T06:01:16;102228.75;;;14.06;78.45
51986;BME280;38002;53.296;6.600;2023-05-21T06:06:17;102226.41;;;14.11;78.76
51986;BME280;38002;53.296;6.600;2023-05-21T06:11:17;102220.03;;;14.20;78.65
51986;BME280;38002;53.296;6.600;2023-05-21T06:16:18;102228.63;;;14.25;78.72
51986;BME280;38002;53.296;6.600;2023-05-21T06:21:18;102228.72;;;14.33;78.58
51986;BME280;38002;53.296;6.600;2023-05-21T06:26:18;102233.31;;;14.42;78.24
51986;BME280;38002;53.296;6.600;2023-05-21T06:31:19;102229.97;;;14.48;77.97
51986;BME280;38002;53.296;6.600;2023-05-21T06:36:21;102229.81;;;14.50;77.67
51986;BME280;38002;53.296;6.600;2023-05-21T06:41:22;102225.91;;;14.52;78.16
51986;BME280;38002;53.296;6.600;2023-05-21T06:46:22;102218.13;;;14.58;77.73
51986;BME280;38002;53.296;6.600;2023-05-21T06:51:23;102198.50;;;14.62;78.06
51986;BME280;38002;53.296;6.600;2023-05-21T06:56:23;102196.03;;;14.77;77.59
51986;BME280;38002;53.296;6.600;2023-05-21T07:01:24;102201.44;;;14.86;77.19
51986;BME280;38002;53.296;6.600;2023-05-21T07:06:24;102196.38;;;14.91;77.50
51986;BME280;38002;53.296;6.600;2023-05-21T07:11:25;102205.13;;;14.95;77.06
51986;BME280;38002;53.296;6.600;2023-05-21T07:16:28;102204.31;;;15.03;77.39
51986;BME280;38002;53.296;6.600;2023-05-21T07:21:28;102197.41;;;15.16;76.92
51986;BME280;38002;53.296;6.600;2023-05-21T07:26:29;102195.75;;;15.23;77.02
51986;BME280;38002;53.296;6.600;2023-05-21T07:31:29;102187.22;;;15.26;76.96
51986;BME280;38002;53.296;6.600;2023-05-21T07:36:30;102189.50;;;15.31;76.80
51986;BME280;38002;53.296;6.600;2023-05-21T07:41:32;102186.09;;;15.37;76.61
51986;BME280;38002;53.296;6.600;2023-05-21T07:46:33;102192.97;;;15.41;76.64
51986;BME280;38002;53.296;6.600;2023-05-21T07:51:33;102189.44;;;15.49;76.63
51986;BME280;38002;53.296;6.600;2023-05-21T07:56:34;102183.16;;;15.56;76.42
51986;BME280;38002;53.296;6.600;2023-05-21T08:01:34;102183.59;;;15.69;76.57
51986;BME280;38002;53.296;6.600;2023-05-21T08:06:36;102174.53;;;15.77;75.33
51986;BME280;38002;53.296;6.600;2023-05-21T08:11:39;102173.91;;;15.83;75.87
51986;BME280;38002;53.296;6.600;2023-05-21T08:16:39;102177.69;;;15.90;75.59
51986;BME280;38002;53.296;6.600;2023-05-21T08:21:40;102175.50;;;16.02;75.51
51986;BME280;38002;53.296;6.600;2023-05-21T08:26:40;102188.94;;;16.13;75.41
51986;BME280;38002;53.296;6.600;2023-05-21T08:31:41;102185.19;;;16.22;74.57
51986;BME280;38002;53.296;6.600;2023-05-21T08:36:41;102184.16;;;16.31;74.67
51986;BME280;38002;53.296;6.600;2023-05-21T08:41:46;102189.53;;;16.49;74.86
51986;BME280;38002;53.296;6.600;2023-05-21T08:46:53;102176.41;;;16.68;74.74
51986;BME280;38002;53.296;6.600;2023-05-21T08:51:56;102182.09;;;16.91;73.98
51986;BME280;38002;53.296;6.600;2023-05-21T08:56:57;102177.44;;;16.92;73.41
51986;BME280;38002;53.296;6.600;2023-05-21T09:01:58;102177.44;;;17.08;73.74
51986;BME280;38002;53.296;6.600;2023-05-21T09:06:59;102182.78;;;17.26;73.36
51986;BME280;38002;53.296;6.600;2023-05-21T09:12:02;102179.25;;;17.48;73.51
51986;BME280;38002;53.296;6.600;2023-05-21T09:17:02;102172.91;;;17.63;71.63
51986;BME280;38002;53.296;6.600;2023-05-21T09:22:03;102174.09;;;17.77;72.36
51986;BME280;38002;53.296;6.600;2023-05-21T09:27:05;102173.72;;;17.80;71.83
51986;BME280;38002;53.296;6.600;2023-05-21T09:32:07;102164.06;;;17.84;71.52
51986;BME280;38002;53.296;6.600;2023-05-21T09:37:08;102168.88;;;17.82;71.42
51986;BME280;38002;53.296;6.600;2023-05-21T09:42:09;102166.13;;;17.90;71.64
51986;BME280;38002;53.296;6.600;2023-05-21T09:47:09;102164.66;;;18.10;71.36
51986;BME280;38002;53.296;6.600;2023-05-21T09:52:10;102166.28;;;18.28;70.36
51986;BME280;38002;53.296;6.600;2023-05-21T09:57:13;102155.91;;;18.38;70.04
51986;BME280;38002;53.296;6.600;2023-05-21T10:02:20;102155.66;;;18.47;69.52
51986;BME280;38002;53.296;6.600;2023-05-21T10:07:22;102142.63;;;18.64;69.96
51986;BME280;38002;53.296;6.600;2023-05-21T10:12:26;102145.00;;;18.90;69.39
51986;BME280;38002;53.296;6.600;2023-05-21T10:17:29;102142.72;;;19.16;69.27
51986;BME280;38002;53.296;6.600;2023-05-21T10:22:30;102129.53;;;19.26;68.47
51986;BME280;38002;53.296;6.600;2023-05-21T10:27:31;102120.69;;;19.31;68.35
51986;BME280;38002;53.296;6.600;2023-05-21T10:32:32;102138.75;;;19.19;67.94
51986;BME280;38002;53.296;6.600;2023-05-21T10:37:34;102137.97;;;19.25;67.78
51986;BME280;38002;53.296;6.600;2023-05-21T10:43:05;102127.38;;;19.51;64.44
51986;BME280;38002;53.296;6.600;2023-05-21T10:48:24;102125.09;;;19.69;64.24
51986;BME280;38002;53.296;6.600;2023-05-21T11:04:05;102103.53;;;20.09;66.77
51986;BME280;38002;53.296;6.600;2023-05-21T11:09:12;102097.06;;;20.37;64.96
51986;BME280;38002;53.296;6.600;2023-05-21T11:14:29;102099.25;;;20.63;63.52
51986;BME280;38002;53.296;6.600;2023-05-21T11:19:44;102094.53;;;20.57;61.25
51986;BME280;38002;53.296;6.600;2023-05-21T11:24:54;102091.50;;;20.52;65.53
51986;BME280;38002;53.296;6.600;2023-05-21T11:29:55;102079.28;;;20.61;65.46
51986;BME280;38002;53.296;6.600;2023-05-21T11:34:58;102077.00;;;20.71;65.42
51986;BME280;38002;53.296;6.600;2023-05-21T11:40:16;102071.34;;;21.07;63.51
51986;BME280;38002;53.296;6.600;2023-05-21T11:45:18;102072.84;;;21.31;64.89
51986;BME280;38002;53.296;6.600;2023-05-21T11:50:19;102070.38;;;21.49;64.46
51986;BME280;38002;53.296;6.600;2023-05-21T11:55:21;102060.84;;;21.58;63.82
51986;BME280;38002;53.296;6.600;2023-05-21T12:00:21;102060.81;;;21.52;63.68
51986;BME280;38002;53.296;6.600;2023-05-21T12:05:22;102059.97;;;21.51;63.48
51986;BME280;38002;53.296;6.600;2023-05-21T12:10:23;102067.66;;;21.56;63.39
51986;BME280;38002;53.296;6.600;2023-05-21T12:15:25;102059.28;;;21.49;63.75
51986;BME280;38002;53.296;6.600;2023-05-21T12:20:25;102065.91;;;21.48;63.49
51986;BME280;38002;53.296;6.600;2023-05-21T12:25:27;102063.19;;;21.20;62.52
51986;BME280;38002;53.296;6.600;2023-05-21T12:30:28;102060.63;;;20.98;61.34
51986;BME280;38002;53.296;6.600;2023-05-21T12:35:29;102057.72;;;21.06;64.55
51986;BME280;38002;53.296;6.600;2023-05-21T12:40:35;102061.31;;;21.00;63.78
51986;BME280;38002;53.296;6.600;2023-05-21T12:45:36;102053.91;;;21.07;64.32
51986;BME280;38002;53.296;6.600;2023-05-21T12:50:38;102052.91;;;21.14;63.72
51986;BME280;38002;53.296;6.600;2023-05-21T12:55:39;102056.34;;;21.16;62.96
51986;BME280;38002;53.296;6.600;2023-05-21T13:00:41;102048.16;;;21.36;63.70
51986;BME280;38002;53.296;6.600;2023-05-21T13:05:43;102051.16;;;21.41;63.52
51986;BME280;38002;53.296;6.600;2023-05-21T13:10:43;102050.53;;;21.39;63.55
51986;BME280;38002;53.296;6.600;2023-05-21T13:15:44;102051.16;;;21.41;63.86
51986;BME280;38002;53.296;6.600;2023-05-21T13:20:44;102038.63;;;21.45;63.97
51986;BME280;38002;53.296;6.600;2023-05-21T13:25:45;102031.22;;;21.52;63.61
51986;BME280;38002;53.296;6.600;2023-05-21T13:30:45;102036.34;;;21.62;64.17
51986;BME280;38002;53.296;6.600;2023-05-21T13:35:45;102028.72;;;21.70;63.99
51986;BME280;38002;53.296;6.600;2023-05-21T13:40:50;102009.34;;;21.64;64.38
51986;BME280;38002;53.296;6.600;2023-05-21T13:45:50;102012.16;;;21.84;64.21
51986;BME280;38002;53.296;6.600;2023-05-21T13:50:51;101992.56;;;21.85;63.91
51986;BME280;38002;53.296;6.600;2023-05-21T13:55:52;102002.81;;;21.85;63.77
51986;BME280;38002;53.296;6.600;2023-05-21T14:00:53;101997.91;;;21.87;64.52
51986;BME280;38002;53.296;6.600;2023-05-21T14:05:54;101987.47;;;21.89;64.46
51986;BME280;38002;53.296;6.600;2023-05-21T14:10:55;101986.25;;;21.98;64.82
51986;BME280;38002;53.296;6.600;2023-05-21T14:15:55;101986.72;;;22.08;64.16
51986;BME280;38002;53.296;6.600;2023-05-21T14:20:56;101982.88;;;22.22;64.26
51986;BME280;38002;53.296;6.600;2023-05-21T14:25:56;101967.56;;;22.26;64.26
51986;BME280;38002;53.296;6.600;2023-05-21T14:30:56;101967.97;;;22.36;64.77
51986;BME280;38002;53.296;6.600;2023-05-21T14:35:57;101964.34;;;22.36;64.65
51986;BME280;38002;53.296;6.600;2023-05-21T14:40:58;101969.91;;;22.42;64.28
51986;BME280;38002;53.296;6.600;2023-05-21T14:45:58;101969.25;;;22.47;64.27
51986;BME280;38002;53.296;6.600;2023-05-21T14:50:58;101959.44;;;22.51;65.05
51986;BME280;38002;53.296;6.600;2023-05-21T14:55:59;101948.34;;;22.57;65.09
51986;BME280;38002;53.296;6.600;2023-05-21T15:01:01;101941.75;;;22.72;64.92
51986;BME280;38002;53.296;6.600;2023-05-21T15:06:03;101946.63;;;22.89;64.62
51986;BME280;38002;53.296;6.600;2023-05-21T15:11:03;101946.59;;;23.02;64.66
51986;BME280;38002;53.296;6.600;2023-05-21T15:16:06;101944.63;;;23.16;64.69
51986;BME280;38002;53.296;6.600;2023-05-21T15:21:07;101936.47;;;23.21;64.85
51986;BME280;38002;53.296;6.600;2023-05-21T15:26:07;101934.34;;;23.23;64.89
51986;BME280;38002;53.296;6.600;2023-05-21T15:31:08;101943.34;;;23.19;64.52
51986;BME280;38002;53.296;6.600;2023-05-21T15:36:08;101938.22;;;23.16;63.94
51986;BME280;38002;53.296;6.600;2023-05-21T15:41:09;101936.97;;;23.12;64.59
51986;BME280;38002;53.296;6.600;2023-05-21T15:46:09;101931.41;;;23.12;64.32
51986;BME280;38002;53.296;6.600;2023-05-21T15:51:11;101929.28;;;23.07;64.06
51986;BME280;38002;53.296;6.600;2023-05-21T15:56:12;101923.94;;;23.05;64.13
51986;BME280;38002;53.296;6.600;2023-05-21T16:01:12;101923.75;;;23.00;64.63
51986;BME280;38002;53.296;6.600;2023-05-21T16:06:13;101916.72;;;22.91;64.75
51986;BME280;38002;53.296;6.600;2023-05-21T16:11:13;101922.97;;;22.80;64.79
51986;BME280;38002;53.296;6.600;2023-05-21T16:16:14;101915.94;;;22.65;64.95
51986;BME280;38002;53.296;6.600;2023-05-21T16:21:14;101915.50;;;22.54;65.30
51986;BME280;38002;53.296;6.600;2023-05-21T16:26:15;101910.81;;;22.55;65.77
51986;BME280;38002;53.296;6.600;2023-05-21T16:31:15;101913.19;;;22.51;65.91
51986;BME280;38002;53.296;6.600;2023-05-21T16:36:16;101905.09;;;22.43;66.02
51986;BME280;38002;53.296;6.600;2023-05-21T16:41:16;101907.22;;;22.41;66.36
51986;BME280;38002;53.296;6.600;2023-05-21T16:46:17;101900.63;;;22.29;66.14
51986;BME280;38002;53.296;6.600;2023-05-21T16:51:17;101895.28;;;22.21;66.14
51986;BME280;38002;53.296;6.600;2023-05-21T16:56:18;101893.78;;;22.12;66.41
51986;BME280;38002;53.296;6.600;2023-05-21T17:01:18;101889.94;;;21.93;67.16
51986;BME280;38002;53.296;6.600;2023-05-21T17:06:18;101880.94;;;21.85;67.28
51986;BME280;38002;53.296;6.600;2023-05-21T17:11:19;101887.75;;;21.76;67.16
51986;BME280;38002;53.296;6.600;2023-05-21T17:16:20;101874.53;;;21.64;67.23
51986;BME280;38002;53.296;6.600;2023-05-21T17:21:21;101882.63;;;21.59;67.59
51986;BME280;38002;53.296;6.600;2023-05-21T17:26:21;101879.41;;;21.56;67.58
51986;BME280;38002;53.296;6.600;2023-05-21T17:31:23;101886.00;;;21.55;68.11
51986;BME280;38002;53.296;6.600;2023-05-21T17:36:23;101883.44;;;21.53;67.89
51986;BME280;38002;53.296;6.600;2023-05-21T17:41:24;101876.63;;;21.43;68.51
51986;BME280;38002;53.296;6.600;2023-05-21T17:46:25;101882.97;;;21.37;68.40
51986;BME280;38002;53.296;6.600;2023-05-21T17:51:25;101884.44;;;21.33;68.90
51986;BME280;38002;53.296;6.600;2023-05-21T17:56:26;101885.50;;;21.32;68.81
51986;BME280;38002;53.296;6.600;2023-05-21T18:01:26;101879.97;;;21.25;69.06
51986;BME280;38002;53.296;6.600;2023-05-21T18:06:27;101879.09;;;21.18;69.20
51986;BME280;38002;53.296;6.600;2023-05-21T18:11:28;101884.75;;;21.10;69.70
51986;BME280;38002;53.296;6.600;2023-05-21T18:16:29;101881.53;;;21.00;69.79
51986;BME280;38002;53.296;6.600;2023-05-21T18:21:31;101884.44;;;20.85;71.87
51986;BME280;38002;53.296;6.600;2023-05-21T18:26:31;101885.44;;;20.77;70.06
51986;BME280;38002;53.296;6.600;2023-05-21T18:31:32;101887.34;;;20.70;70.40
51986;BME280;38002;53.296;6.600;2023-05-21T18:36:32;101884.31;;;20.65;70.79
51986;BME280;38002;53.296;6.600;2023-05-21T18:41:38;101900.00;;;20.58;70.84
51986;BME280;38002;53.296;6.600;2023-05-21T18:46:38;101891.84;;;20.44;71.01
51986;BME280;38002;53.296;6.600;2023-05-21T18:51:39;101886.84;;;20.32;71.14
51986;BME280;38002;53.296;6.600;2023-05-21T18:56:39;101884.44;;;20.23;71.45
51986;BME280;38002;53.296;6.600;2023-05-21T19:01:40;101893.47;;;20.10;71.70
51986;BME280;38002;53.296;6.600;2023-05-21T19:06:40;101886.75;;;19.98;71.92
51986;BME280;38002;53.296;6.600;2023-05-21T19:11:41;101887.47;;;19.85;72.34
51986;BME280;38002;53.296;6.600;2023-05-21T19:16:41;101881.44;;;19.75;72.62
51986;BME280;38002;53.296;6.600;2023-05-21T19:21:42;101884.34;;;19.67;72.90
51986;BME280;38002;53.296;6.600;2023-05-21T19:26:42;101890.63;;;19.61;73.02
51986;BME280;38002;53.296;6.600;2023-05-21T19:31:43;101886.69;;;19.49;73.15
51986;BME280;38002;53.296;6.600;2023-05-21T19:36:43;101887.16;;;19.38;73.60
51986;BME280;38002;53.296;6.600;2023-05-21T19:41:44;101887.28;;;19.30;73.95
51986;BME280;38002;53.296;6.600;2023-05-21T19:46:44;101885.91;;;19.19;74.00
51986;BME280;38002;53.296;6.600;2023-05-21T19:51:45;101890.16;;;19.07;74.44
51986;BME280;38002;53.296;6.600;2023-05-21T19:56:45;101877.56;;;18.98;74.62
51986;BME280;38002;53.296;6.600;2023-05-21T20:01:46;101871.09;;;18.91;74.95
51986;BME280;38002;53.296;6.600;2023-05-21T20:06:46;101874.81;;;18.83;75.04
51986;BME280;38002;53.296;6.600;2023-05-21T20:11:47;101873.88;;;18.76;75.15
51986;BME280;38002;53.296;6.600;2023-05-21T20:16:47;101860.84;;;18.70;75.45
51986;BME280;38002;53.296;6.600;2023-05-21T20:21:48;101864.34;;;18.64;75.46
51986;BME280;38002;53.296;6.600;2023-05-21T20:26:49;101865.53;;;18.55;75.74
51986;BME280;38002;53.296;6.600;2023-05-21T20:31:49;101863.50;;;18.49;75.86
51986;BME280;38002;53.296;6.600;2023-05-21T20:36:50;101858.06;;;18.41;76.06
51986;BME280;38002;53.296;6.600;2023-05-21T20:41:52;101866.03;;;18.36;76.47
51986;BME280;38002;53.296;6.600;2023-05-21T20:46:52;101857.56;;;18.23;79.13
51986;BME280;38002;53.296;6.600;2023-05-21T20:51:53;101860.50;;;18.21;76.56
51986;BME280;38002;53.296;6.600;2023-05-21T20:56:53;101858.53;;;18.15;76.93
51986;BME280;38002;53.296;6.600;2023-05-21T21:01:58;101854.78;;;18.08;77.12
51986;BME280;38002;53.296;6.600;2023-05-21T21:06:58;101847.69;;;17.99;77.62
51986;BME280;38002;53.296;6.600;2023-05-21T21:12:01;101850.78;;;17.96;77.63
51986;BME280;38002;53.296;6.600;2023-05-21T21:17:01;101851.34;;;17.91;77.79
51986;BME280;38002;53.296;6.600;2023-05-21T21:22:02;101855.50;;;17.87;78.19
51986;BME280;38002;53.296;6.600;2023-05-21T21:27:02;101852.44;;;17.82;78.39
51986;BME280;38002;53.296;6.600;2023-05-21T21:32:03;101860.03;;;17.80;78.49
51986;BME280;38002;53.296;6.600;2023-05-21T21:37:04;101856.59;;;17.78;78.63
51986;BME280;38002;53.296;6.600;2023-05-21T21:42:05;101861.44;;;17.76;78.82
51986;BME280;38002;53.296;6.600;2023-05-21T21:47:05;101855.25;;;17.74;79.01
51986;BME280;38002;53.296;6.600;2023-05-21T21:52:06;101860.13;;;17.72;79.18
51986;BME280;38002;53.296;6.600;2023-05-21T21:57:07;101846.72;;;17.69;79.30
51986;BME280;38002;53.296;6.600;2023-05-21T22:02:09;101851.94;;;17.64;79.44
51986;BME280;38002;53.296;6.600;2023-05-21T22:07:09;101848.88;;;17.59;79.79
51986;BME280;38002;53.296;6.600;2023-05-21T22:12:17;101855.75;;;17.55;79.58
51986;BME280;38002;53.296;6.600;2023-05-21T22:17:17;101848.22;;;17.49;79.80
51986;BME280;38002;53.296;6.600;2023-05-21T22:22:20;101847.03;;;17.43;79.69
51986;BME280;38002;53.296;6.600;2023-05-21T22:27:20;101844.00;;;17.38;80.19
51986;BME280;38002;53.296;6.600;2023-05-21T22:32:21;101837.72;;;17.30;80.05
51986;BME280;38002;53.296;6.600;2023-05-21T22:37:21;101834.66;;;17.24;80.49
51986;BME280;38002;53.296;6.600;2023-05-21T22:42:25;101831.75;;;17.18;80.41
51986;BME280;38002;53.296;6.600;2023-05-21T22:47:25;101828.69;;;17.13;80.50
51986;BME280;38002;53.296;6.600;2023-05-21T22:52:26;101826.00;;;17.05;80.88
51986;BME280;38002;53.296;6.600;2023-05-21T22:57:27;101827.41;;;17.01;80.93
51986;BME280;38002;53.296;6.600;2023-05-21T23:02:28;101818.00;;;16.95;81.13
51986;BME280;38002;53.296;6.600;2023-05-21T23:07:29;101817.69;;;16.90;81.30
51986;BME280;38002;53.296;6.600;2023-05-21T23:12:29;101821.63;;;16.88;81.23
51986;BME280;38002;53.296;6.600;2023-05-21T23:17:30;101827.66;;;16.83;81.40
51986;BME280;38002;53.296;6.600;2023-05-21T23:22:30;101816.56;;;16.76;81.56
51986;BME280;38002;53.296;6.600;2023-05-21T23:27:31;101813.63;;;16.78;81.86
51986;BME280;38002;53.296;6.600;2023-05-21T23:32:31;101815.84;;;16.74;82.05
51986;BME280;38002;53.296;6.600;2023-05-21T23:37:32;101803.34;;;16.72;81.97
51986;BME280;38002;53.296;6.600;2023-05-21T23:42:32;101805.94;;;16.73;82.26
51986;BME280;38002;53.296;6.600;2023-05-21T23:47:33;101788.75;;;16.71;81.98
51986;BME280;38002;53.296;6.600;2023-05-21T23:52:33;101781.38;;;16.72;82.12
51986;BME280;38002;53.296;6.600;2023-05-21T23:57:34;101783.44;;;16.70;82.49
